sensor_id;sensor_type;location;lat;lon;timestamp;temperature;humidity
5689;DHT22;2869;50.432;8.680;2024-02-26T00:00:58;4.30;99.90
5689;DHT22;2869;50.432;8.680;2024-02-26T00:03:24;4.30;99.90
5689;DHT22;2869;50.432;8.680;2024-02-26T00:05:50;4.30;99.90
5689;DHT22;2869;50.432;8.680;2024-02-26T00:08:17;4.30;99.90
5689;DHT22;2869;50.432;8.680;2024-02-26T00:10:43;4.30;99.90
5689;DHT22;2869;50.432;8.680;2024-02-26T00:13:10;4.20;99.90
5689;DHT22;2869;50.432;8.680;2024-02-26T00:15:36;4.30;99.90
5689;DHT22;2869;50.432;8.680;2024-02-26T00:18:04;4.30;99.90
5689;DHT22;2869;50.432;8.680;2024-02-26T00:20:31;4.20;99.90
5689;DHT22;2869;50.432;8.680;2024-02-26T00:22:57;4.20;99.90
5689;DHT22;2869;50.432;8.680;2024-02-26T00:25:24;4.20;99.90
5689;DHT22;2869;50.432;8.680;2024-02-26T00:27:50;4.30;99.90
5689;DHT22;2869;50.432;8.680;2024-02-26T00:30:17;4.30;99.90
5689;DHT22;2869;50.432;8.680;2024-02-26T00:32:43;4.30;99.90
5689;DHT22;2869;50.432;8.680;2024-02-26T00:35:11;4.30;99.90
5689;DHT22;2869;50.432;8.680;2024-02-26T00:37:37;4.20;99.90
5689;DHT22;2869;50.432;8.680;2024-02-26T00:40:04;4.20;99.90
5689;DHT22;2869;50.432;8.680;2024-02-26T00:42:31;4.20;99.90
5689;DHT22;2869;50.432;8.680;2024-02-26T00:44:58;4.20;99.90
5689;DHT22;2869;50.432;8.680;2024-02-26T00:47:24;4.20;99.90
5689;DHT22;2869;50.432;8.680;2024-02-26T00:49:51;4.10;99.90
5689;DHT22;2869;50.432;8.680;2024-02-26T00:52:19;4.10;99.90
5689;DHT22;2869;50.432;8.680;2024-02-26T00:54:45;4.10;99.90
5689;DHT22;2869;50.432;8.680;2024-02-26T00:57:12;4.10;99.90
5689;DHT22;2869;50.432;8.680;2024-02-26T00:59:38;4.10;99.90
5689;DHT22;2869;50.432;8.680;2024-02-26T01:02:05;4.10;99.90
5689;DHT22;2869;50.432;8.680;2024-02-26T01:04:32;4.10;99.90
5689;DHT22;2869;50.432;8.680;2024-02-26T01:06:59;4.10;99.90
5689;DHT22;2869;50.432;8.680;2024-02-26T01:09:27;4.10;99.90
5689;DHT22;2869;50.432;8.680;2024-02-26T01:11:53;4.10;99.90
5689;DHT22;2869;50.432;8.680;2024-02-26T01:14:20;4.10;99.90
5689;DHT22;2869;50.432;8.680;2024-02-26T01:16:46;4.10;99.90
5689;DHT22;2869;50.432;8.680;2024-02-26T01:19:13;4.10;99.90
5689;DHT22;2869;50.432;8.680;2024-02-26T01:21:40;4.10;99.90
5689;DHT22;2869;50.432;8.680;2024-02-26T01:24:07;4.10;99.90
5689;DHT22;2869;50.432;8.680;2024-02-26T01:26:34;4.10;99.90
5689;DHT22;2869;50.432;8.680;2024-02-26T01:29:01;4.10;99.90
5689;DHT22;2869;50.432;8.680;2024-02-26T01:31:27;4.10;99.90
5689;DHT22;2869;50.432;8.680;2024-02-26T01:33:54;4.10;99.90
5689;DHT22;2869;50.432;8.680;2024-02-26T01:36:20;4.10;99.90
5689;DHT22;2869;50.432;8.680;2024-02-26T01:38:47;4.10;99.90
5689;DHT22;2869;50.432;8.680;2024-02-26T01:41:13;4.10;99.90
5689;DHT22;2869;50.432;8.680;2024-02-26T01:43:41;4.10;99.90
5689;DHT22;2869;50.432;8.680;2024-02-26T01:46:08;4.10;99.90
5689;DHT22;2869;50.432;8.680;2024-02-26T01:48:37;4.10;99.90
5689;DHT22;2869;50.432;8.680;2024-02-26T01:51:03;4.10;99.90
5689;DHT22;2869;50.432;8.680;2024-02-26T01:53:30;4.10;99.90
5689;DHT22;2869;50.432;8.680;2024-02-26T01:55:56;4.10;99.90
5689;DHT22;2869;50.432;8.680;2024-02-26T01:58:23;4.10;99.90
5689;DHT22;2869;50.432;8.680;2024-02-26T02:00:51;4.10;99.90
5689;DHT22;2869;50.432;8.680;2024-02-26T02:03:17;4.20;99.90
5689;DHT22;2869;50.432;8.680;2024-02-26T02:05:44;4.20;99.90
5689;DHT22;2869;50.432;8.680;2024-02-26T02:08:10;4.20;99.90
5689;DHT22;2869;50.432;8.680;2024-02-26T02:10:37;4.10;99.90
5689;DHT22;2869;50.432;8.680;2024-02-26T02:13:04;4.10;99.90
5689;DHT22;2869;50.432;8.680;2024-02-26T02:15:31;4.10;99.90
5689;DHT22;2869;50.432;8.680;2024-02-26T02:17:59;4.10;99.90
5689;DHT22;2869;50.432;8.680;2024-02-26T02:20:27;4.10;99.90
5689;DHT22;2869;50.432;8.680;2024-02-26T02:22:58;4.10;99.90
5689;DHT22;2869;50.432;8.680;2024-02-26T02:25:24;4.10;99.90
5689;DHT22;2869;50.432;8.680;2024-02-26T02:27:51;4.00;99.90
5689;DHT22;2869;50.432;8.680;2024-02-26T02:30:18;4.00;99.90
5689;DHT22;2869;50.432;8.680;2024-02-26T02:32:44;4.00;99.90
5689;DHT22;2869;50.432;8.680;2024-02-26T02:35:11;4.00;99.90
5689;DHT22;2869;50.432;8.680;2024-02-26T02:37:39;4.00;99.90
5689;DHT22;2869;50.432;8.680;2024-02-26T02:40:06;4.00;99.90
5689;DHT22;2869;50.432;8.680;2024-02-26T02:42:32;4.00;99.90
5689;DHT22;2869;50.432;8.680;2024-02-26T02:44:59;4.00;99.90
5689;DHT22;2869;50.432;8.680;2024-02-26T02:47:25;4.00;99.90
5689;DHT22;2869;50.432;8.680;2024-02-26T02:49:52;4.00;99.90
5689;DHT22;2869;50.432;8.680;2024-02-26T02:52:18;4.00;99.90
5689;DHT22;2869;50.432;8.680;2024-02-26T02:54:45;4.00;99.90
5689;DHT22;2869;50.432;8.680;2024-02-26T02:57:12;4.00;99.90
5689;DHT22;2869;50.432;8.680;2024-02-26T02:59:38;4.00;99.90
5689;DHT22;2869;50.432;8.680;2024-02-26T03:02:05;4.00;99.90
5689;DHT22;2869;50.432;8.680;2024-02-26T03:04:32;4.00;99.90
5689;DHT22;2869;50.432;8.680;2024-02-26T03:06:58;4.00;99.90
5689;DHT22;2869;50.432;8.680;2024-02-26T03:09:25;4.00;99.90
5689;DHT22;2869;50.432;8.680;2024-02-26T03:11:53;4.00;99.90
5689;DHT22;2869;50.432;8.680;2024-02-26T03:14:19;4.10;99.90
5689;DHT22;2869;50.432;8.680;2024-02-26T03:16:46;4.10;99.90
5689;DHT22;2869;50.432;8.680;2024-02-26T03:19:13;4.10;99.90
5689;DHT22;2869;50.432;8.680;2024-02-26T03:21:40;4.10;99.90
5689;DHT22;2869;50.432;8.680;2024-02-26T03:24:07;4.10;99.90
5689;DHT22;2869;50.432;8.680;2024-02-26T03:26:35;4.20;99.90
5689;DHT22;2869;50.432;8.680;2024-02-26T03:29:03;4.10;99.90
5689;DHT22;2869;50.432;8.680;2024-02-26T03:31:30;4.10;99.90
5689;DHT22;2869;50.432;8.680;2024-02-26T03:33:56;4.10;99.90
5689;DHT22;2869;50.432;8.680;2024-02-26T03:36:23;4.10;99.90
5689;DHT22;2869;50.432;8.680;2024-02-26T03:38:49;4.10;99.90
5689;DHT22;2869;50.432;8.680;2024-02-26T03:41:16;4.10;99.90
5689;DHT22;2869;50.432;8.680;2024-02-26T03:43:42;4.20;99.90
5689;DHT22;2869;50.432;8.680;2024-02-26T03:46:11;4.20;99.90
5689;DHT22;2869;50.432;8.680;2024-02-26T03:48:39;4.20;99.90
5689;DHT22;2869;50.432;8.680;2024-02-26T03:51:05;4.20;99.90
5689;DHT22;2869;50.432;8.680;2024-02-26T03:53:32;4.20;99.90
5689;DHT22;2869;50.432;8.680;2024-02-26T03:56:02;4.20;99.90
5689;DHT22;2869;50.432;8.680;2024-02-26T03:58:29;4.20;99.90
5689;DHT22;2869;50.432;8.680;2024-02-26T04:00:55;4.20;99.90
5689;DHT22;2869;50.432;8.680;2024-02-26T04:03:23;4.20;99.90
5689;DHT22;2869;50.432;8.680;2024-02-26T04:05:49;4.20;99.90
5689;DHT22;2869;50.432;8.680;2024-02-26T04:08:16;4.20;99.90
5689;DHT22;2869;50.432;8.680;2024-02-26T04:10:42;4.10;99.90
5689;DHT22;2869;50.432;8.680;2024-02-26T04:13:09;4.10;99.90
5689;DHT22;2869;50.432;8.680;2024-02-26T04:15:35;4.10;99.90
5689;DHT22;2869;50.432;8.680;2024-02-26T04:18:02;4.20;99.90
5689;DHT22;2869;50.432;8.680;2024-02-26T04:20:30;4.20;99.90
5689;DHT22;2869;50.432;8.680;2024-02-26T04:22:56;4.10;99.90
5689;DHT22;2869;50.432;8.680;2024-02-26T04:25:23;4.10;99.90
5689;DHT22;2869;50.432;8.680;2024-02-26T04:27:49;4.10;99.90
5689;DHT22;2869;50.432;8.680;2024-02-26T04:30:16;4.10;99.90
5689;DHT22;2869;50.432;8.680;2024-02-26T04:32:43;4.10;99.90
5689;DHT22;2869;50.432;8.680;2024-02-26T04:35:09;4.10;99.90
5689;DHT22;2869;50.432;8.680;2024-02-26T04:37:37;4.10;99.90
5689;DHT22;2869;50.432;8.680;2024-02-26T04:40:04;4.10;99.90
5689;DHT22;2869;50.432;8.680;2024-02-26T04:42:31;4.10;99.90
5689;DHT22;2869;50.432;8.680;2024-02-26T04:44:57;4.10;99.90
5689;DHT22;2869;50.432;8.680;2024-02-26T04:47:24;4.10;99.90
5689;DHT22;2869;50.432;8.680;2024-02-26T04:49:50;4.10;99.90
5689;DHT22;2869;50.432;8.680;2024-02-26T04:52:18;4.10;99.90
5689;DHT22;2869;50.432;8.680;2024-02-26T04:54:46;4.10;99.90
5689;DHT22;2869;50.432;8.680;2024-02-26T04:57:12;4.10;99.90
5689;DHT22;2869;50.432;8.680;2024-02-26T04:59:39;4.10;99.90
5689;DHT22;2869;50.432;8.680;2024-02-26T05:02:07;4.10;99.90
5689;DHT22;2869;50.432;8.680;2024-02-26T05:04:34;4.10;99.90
5689;DHT22;2869;50.432;8.680;2024-02-26T05:07:01;4.10;99.90
5689;DHT22;2869;50.432;8.680;2024-02-26T05:09:27;4.10;99.90
5689;DHT22;2869;50.432;8.680;2024-02-26T05:11:55;4.10;99.90
5689;DHT22;2869;50.432;8.680;2024-02-26T05:14:22;4.10;99.90
5689;DHT22;2869;50.432;8.680;2024-02-26T05:16:48;4.10;99.90
5689;DHT22;2869;50.432;8.680;2024-02-26T05:19:15;4.10;99.90
5689;DHT22;2869;50.432;8.680;2024-02-26T05:21:41;4.10;99.90
5689;DHT22;2869;50.432;8.680;2024-02-26T05:24:09;4.10;99.90
5689;DHT22;2869;50.432;8.680;2024-02-26T05:26:36;4.10;99.90
5689;DHT22;2869;50.432;8.680;2024-02-26T05:29:03;4.10;99.90
5689;DHT22;2869;50.432;8.680;2024-02-26T05:31:30;4.10;99.90
5689;DHT22;2869;50.432;8.680;2024-02-26T05:33:56;4.10;99.90
5689;DHT22;2869;50.432;8.680;2024-02-26T05:36:23;4.10;99.90
5689;DHT22;2869;50.432;8.680;2024-02-26T05:38:50;4.20;99.90
5689;DHT22;2869;50.432;8.680;2024-02-26T05:41:17;4.10;99.90
5689;DHT22;2869;50.432;8.680;2024-02-26T05:43:48;4.20;99.90
5689;DHT22;2869;50.432;8.680;2024-02-26T05:46:17;4.20;99.90
5689;DHT22;2869;50.432;8.680;2024-02-26T05:48:44;4.20;99.90
5689;DHT22;2869;50.432;8.680;2024-02-26T05:51:10;4.20;99.90
5689;DHT22;2869;50.432;8.680;2024-02-26T05:53:37;4.20;99.90
5689;DHT22;2869;50.432;8.680;2024-02-26T05:56:03;4.20;99.90
5689;DHT22;2869;50.432;8.680;2024-02-26T05:58:30;4.20;99.90
5689;DHT22;2869;50.432;8.680;2024-02-26T06:00:56;4.20;99.90
5689;DHT22;2869;50.432;8.680;2024-02-26T06:03:24;4.20;99.90
5689;DHT22;2869;50.432;8.680;2024-02-26T06:05:51;4.20;99.90
5689;DHT22;2869;50.432;8.680;2024-02-26T06:08:17;4.20;99.90
5689;DHT22;2869;50.432;8.680;2024-02-26T06:10:44;4.30;99.90
5689;DHT22;2869;50.432;8.680;2024-02-26T06:13:10;4.30;99.90
5689;DHT22;2869;50.432;8.680;2024-02-26T06:15:37;4.30;99.90
5689;DHT22;2869;50.432;8.680;2024-02-26T06:18:03;4.30;99.90
5689;DHT22;2869;50.432;8.680;2024-02-26T06:20:31;4.30;99.90
5689;DHT22;2869;50.432;8.680;2024-02-26T06:22:58;4.30;99.90
5689;DHT22;2869;50.432;8.680;2024-02-26T06:25:24;4.30;99.90
5689;DHT22;2869;50.432;8.680;2024-02-26T06:27:51;4.40;99.90
5689;DHT22;2869;50.432;8.680;2024-02-26T06:30:18;4.40;99.90
5689;DHT22;2869;50.432;8.680;2024-02-26T06:32:44;4.40;99.90
5689;DHT22;2869;50.432;8.680;2024-02-26T06:35:11;4.40;99.90
5689;DHT22;2869;50.432;8.680;2024-02-26T06:37:39;4.40;99.90
5689;DHT22;2869;50.432;8.680;2024-02-26T06:40:06;4.40;99.90
5689;DHT22;2869;50.432;8.680;2024-02-26T06:42:32;4.40;99.90
5689;DHT22;2869;50.432;8.680;2024-02-26T06:44:59;4.40;99.90
5689;DHT22;2869;50.432;8.680;2024-02-26T06:47:26;4.40;99.90
5689;DHT22;2869;50.432;8.680;2024-02-26T06:49:52;4.40;99.90
5689;DHT22;2869;50.432;8.680;2024-02-26T06:52:20;4.50;99.90
5689;DHT22;2869;50.432;8.680;2024-02-26T06:54:48;4.50;99.90
5689;DHT22;2869;50.432;8.680;2024-02-26T06:57:16;4.50;99.90
5689;DHT22;2869;50.432;8.680;2024-02-26T06:59:42;4.50;99.90
5689;DHT22;2869;50.432;8.680;2024-02-26T07:02:11;4.60;99.90
5689;DHT22;2869;50.432;8.680;2024-02-26T07:04:37;4.60;99.90
5689;DHT22;2869;50.432;8.680;2024-02-26T07:07:04;4.60;99.90
5689;DHT22;2869;50.432;8.680;2024-02-26T07:09:30;4.60;99.90
5689;DHT22;2869;50.432;8.680;2024-02-26T07:11:58;4.60;99.90
5689;DHT22;2869;50.432;8.680;2024-02-26T07:14:25;4.60;99.90
5689;DHT22;2869;50.432;8.680;2024-02-26T07:16:51;4.60;99.90
5689;DHT22;2869;50.432;8.680;2024-02-26T07:19:18;4.60;99.90
5689;DHT22;2869;50.432;8.680;2024-02-26T07:21:44;4.60;99.90
5689;DHT22;2869;50.432;8.680;2024-02-26T07:24:11;4.60;99.90
5689;DHT22;2869;50.432;8.680;2024-02-26T07:26:37;4.60;99.90
5689;DHT22;2869;50.432;8.680;2024-02-26T07:29:05;4.60;99.90
5689;DHT22;2869;50.432;8.680;2024-02-26T07:31:31;4.70;99.90
5689;DHT22;2869;50.432;8.680;2024-02-26T07:33:58;4.70;99.90
5689;DHT22;2869;50.432;8.680;2024-02-26T07:36:24;4.70;99.90
5689;DHT22;2869;50.432;8.680;2024-02-26T07:38:51;4.80;99.90
5689;DHT22;2869;50.432;8.680;2024-02-26T07:41:19;4.80;99.90
5689;DHT22;2869;50.432;8.680;2024-02-26T07:43:46;4.80;99.90
5689;DHT22;2869;50.432;8.680;2024-02-26T07:46:13;4.90;99.90
5689;DHT22;2869;50.432;8.680;2024-02-26T07:48:40;4.90;99.90
5689;DHT22;2869;50.432;8.680;2024-02-26T07:51:07;4.90;99.90
5689;DHT22;2869;50.432;8.680;2024-02-26T07:53:34;4.90;99.90
5689;DHT22;2869;50.432;8.680;2024-02-26T07:56:00;4.90;99.90
5689;DHT22;2869;50.432;8.680;2024-02-26T07:58:27;4.80;99.90
5689;DHT22;2869;50.432;8.680;2024-02-26T08:00:53;4.80;99.90
5689;DHT22;2869;50.432;8.680;2024-02-26T08:03:21;4.80;99.90
5689;DHT22;2869;50.432;8.680;2024-02-26T08:05:47;4.90;99.90
5689;DHT22;2869;50.432;8.680;2024-02-26T08:08:14;4.90;99.90
5689;DHT22;2869;50.432;8.680;2024-02-26T08:10:40;4.90;99.90
5689;DHT22;2869;50.432;8.680;2024-02-26T08:13:07;5.00;99.90
5689;DHT22;2869;50.432;8.680;2024-02-26T08:15:34;4.90;99.90
5689;DHT22;2869;50.432;8.680;2024-02-26T08:18:02;4.90;99.90
5689;DHT22;2869;50.432;8.680;2024-02-26T08:20:31;4.90;99.90
5689;DHT22;2869;50.432;8.680;2024-02-26T08:22:57;4.90;99.90
5689;DHT22;2869;50.432;8.680;2024-02-26T08:25:24;4.90;99.90
5689;DHT22;2869;50.432;8.680;2024-02-26T08:27:51;4.90;99.90
5689;DHT22;2869;50.432;8.680;2024-02-26T08:30:18;4.90;99.90
5689;DHT22;2869;50.432;8.680;2024-02-26T08:32:44;4.90;99.90
5689;DHT22;2869;50.432;8.680;2024-02-26T08:35:11;5.00;99.90
5689;DHT22;2869;50.432;8.680;2024-02-26T08:37:39;5.00;99.90
5689;DHT22;2869;50.432;8.680;2024-02-26T08:40:06;5.00;99.90
5689;DHT22;2869;50.432;8.680;2024-02-26T08:42:33;5.00;99.90
5689;DHT22;2869;50.432;8.680;2024-02-26T08:44:59;5.10;99.90
5689;DHT22;2869;50.432;8.680;2024-02-26T08:47:26;5.10;99.90
5689;DHT22;2869;50.432;8.680;2024-02-26T08:49:53;5.10;99.90
5689;DHT22;2869;50.432;8.680;2024-02-26T08:52:19;5.20;99.90
5689;DHT22;2869;50.432;8.680;2024-02-26T08:54:48;5.20;99.90
5689;DHT22;2869;50.432;8.680;2024-02-26T08:57:14;5.20;99.90
5689;DHT22;2869;50.432;8.680;2024-02-26T08:59:41;5.30;99.90
5689;DHT22;2869;50.432;8.680;2024-02-26T09:02:08;5.30;99.90
5689;DHT22;2869;50.432;8.680;2024-02-26T09:04:34;5.30;99.90
5689;DHT22;2869;50.432;8.680;2024-02-26T09:07:01;5.30;99.90
5689;DHT22;2869;50.432;8.680;2024-02-26T09:09:27;5.40;99.90
5689;DHT22;2869;50.432;8.680;2024-02-26T09:11:55;5.50;99.90
5689;DHT22;2869;50.432;8.680;2024-02-26T09:14:22;5.50;99.90
5689;DHT22;2869;50.432;8.680;2024-02-26T09:16:48;5.50;99.90
5689;DHT22;2869;50.432;8.680;2024-02-26T09:19:15;5.50;99.90
5689;DHT22;2869;50.432;8.680;2024-02-26T09:21:42;5.50;99.90
5689;DHT22;2869;50.432;8.680;2024-02-26T09:24:08;5.50;99.90
5689;DHT22;2869;50.432;8.680;2024-02-26T09:26:35;5.50;99.90
5689;DHT22;2869;50.432;8.680;2024-02-26T09:29:03;5.50;99.90
5689;DHT22;2869;50.432;8.680;2024-02-26T09:31:30;5.50;99.90
5689;DHT22;2869;50.432;8.680;2024-02-26T09:33:56;5.50;99.90
5689;DHT22;2869;50.432;8.680;2024-02-26T09:36:22;5.50;99.90
5689;DHT22;2869;50.432;8.680;2024-02-26T09:38:49;5.60;99.90
5689;DHT22;2869;50.432;8.680;2024-02-26T09:41:16;5.60;99.90
5689;DHT22;2869;50.432;8.680;2024-02-26T09:43:43;5.60;99.90
5689;DHT22;2869;50.432;8.680;2024-02-26T09:46:11;5.70;99.90
5689;DHT22;2869;50.432;8.680;2024-02-26T09:48:38;5.70;99.90
5689;DHT22;2869;50.432;8.680;2024-02-26T09:51:04;5.80;99.90
5689;DHT22;2869;50.432;8.680;2024-02-26T09:53:31;5.80;99.90
5689;DHT22;2869;50.432;8.680;2024-02-26T09:55:58;5.80;99.90
5689;DHT22;2869;50.432;8.680;2024-02-26T09:58:25;5.90;99.90
5689;DHT22;2869;50.432;8.680;2024-02-26T10:00:54;5.90;99.90
5689;DHT22;2869;50.432;8.680;2024-02-26T10:03:25;6.00;99.90
5689;DHT22;2869;50.432;8.680;2024-02-26T10:05:54;6.00;99.90
5689;DHT22;2869;50.432;8.680;2024-02-26T10:08:22;6.10;99.90
5689;DHT22;2869;50.432;8.680;2024-02-26T10:10:50;6.20;99.90
5689;DHT22;2869;50.432;8.680;2024-02-26T10:13:16;6.30;99.90
5689;DHT22;2869;50.432;8.680;2024-02-26T10:15:44;6.30;99.90
5689;DHT22;2869;50.432;8.680;2024-02-26T10:18:11;6.40;99.90
5689;DHT22;2869;50.432;8.680;2024-02-26T10:20:39;6.40;99.90
5689;DHT22;2869;50.432;8.680;2024-02-26T10:23:05;6.40;99.90
5689;DHT22;2869;50.432;8.680;2024-02-26T10:25:32;6.50;99.90
5689;DHT22;2869;50.432;8.680;2024-02-26T10:27:59;6.50;99.90
5689;DHT22;2869;50.432;8.680;2024-02-26T10:30:27;6.50;99.90
5689;DHT22;2869;50.432;8.680;2024-02-26T10:32:53;6.60;99.90
5689;DHT22;2869;50.432;8.680;2024-02-26T10:35:20;6.70;99.90
5689;DHT22;2869;50.432;8.680;2024-02-26T10:37:48;6.70;99.90
5689;DHT22;2869;50.432;8.680;2024-02-26T10:40:15;6.80;99.90
5689;DHT22;2869;50.432;8.680;2024-02-26T10:42:42;6.90;99.90
5689;DHT22;2869;50.432;8.680;2024-02-26T10:45:08;6.90;99.90
5689;DHT22;2869;50.432;8.680;2024-02-26T10:47:35;6.90;99.90
5689;DHT22;2869;50.432;8.680;2024-02-26T10:50:02;6.90;99.90
5689;DHT22;2869;50.432;8.680;2024-02-26T10:52:30;7.00;99.90
5689;DHT22;2869;50.432;8.680;2024-02-26T10:54:59;7.00;99.90
5689;DHT22;2869;50.432;8.680;2024-02-26T10:57:27;7.10;99.90
5689;DHT22;2869;50.432;8.680;2024-02-26T10:59:57;7.10;99.90
5689;DHT22;2869;50.432;8.680;2024-02-26T11:02:24;7.10;99.90
5689;DHT22;2869;50.432;8.680;2024-02-26T11:04:51;7.20;99.90
5689;DHT22;2869;50.432;8.680;2024-02-26T11:07:18;7.20;99.90
5689;DHT22;2869;50.432;8.680;2024-02-26T11:09:45;7.20;99.90
5689;DHT22;2869;50.432;8.680;2024-02-26T11:12:18;7.20;99.90
5689;DHT22;2869;50.432;8.680;2024-02-26T11:14:46;7.20;99.90
5689;DHT22;2869;50.432;8.680;2024-02-26T11:17:14;7.30;99.90
5689;DHT22;2869;50.432;8.680;2024-02-26T11:19:41;7.30;99.90
5689;DHT22;2869;50.432;8.680;2024-02-26T11:22:09;7.40;99.90
5689;DHT22;2869;50.432;8.680;2024-02-26T11:24:35;7.50;99.90
5689;DHT22;2869;50.432;8.680;2024-02-26T11:27:06;7.50;99.90
5689;DHT22;2869;50.432;8.680;2024-02-26T11:29:37;7.60;99.90
5689;DHT22;2869;50.432;8.680;2024-02-26T11:32:04;7.60;99.90
5689;DHT22;2869;50.432;8.680;2024-02-26T11:34:31;7.60;99.90
5689;DHT22;2869;50.432;8.680;2024-02-26T11:36:57;7.50;99.90
5689;DHT22;2869;50.432;8.680;2024-02-26T11:39:34;7.50;99.90
5689;DHT22;2869;50.432;8.680;2024-02-26T11:42:04;7.50;99.90
5689;DHT22;2869;50.432;8.680;2024-02-26T11:44:31;7.50;99.90
5689;DHT22;2869;50.432;8.680;2024-02-26T11:46:58;7.50;99.90
5689;DHT22;2869;50.432;8.680;2024-02-26T11:49:30;7.60;99.90
5689;DHT22;2869;50.432;8.680;2024-02-26T11:51:57;7.70;99.90
5689;DHT22;2869;50.432;8.680;2024-02-26T11:57:25;7.80;99.90
5689;DHT22;2869;50.432;8.680;2024-02-26T11:59:53;7.70;99.90
5689;DHT22;2869;50.432;8.680;2024-02-26T12:02:40;7.70;99.90
5689;DHT22;2869;50.432;8.680;2024-02-26T12:05:08;7.70;99.90
5689;DHT22;2869;50.432;8.680;2024-02-26T12:07:37;7.80;99.90
5689;DHT22;2869;50.432;8.680;2024-02-26T12:10:16;7.80;99.90
5689;DHT22;2869;50.432;8.680;2024-02-26T12:12:43;7.90;99.90
5689;DHT22;2869;50.432;8.680;2024-02-26T12:15:11;7.90;99.90
5689;DHT22;2869;50.432;8.680;2024-02-26T12:17:37;8.00;99.90
5689;DHT22;2869;50.432;8.680;2024-02-26T12:20:12;8.10;99.90
5689;DHT22;2869;50.432;8.680;2024-02-26T12:22:39;8.00;99.90
5689;DHT22;2869;50.432;8.680;2024-02-26T12:25:06;8.10;99.90
5689;DHT22;2869;50.432;8.680;2024-02-26T12:27:34;8.10;99.90
5689;DHT22;2869;50.432;8.680;2024-02-26T12:30:01;8.10;99.90
5689;DHT22;2869;50.432;8.680;2024-02-26T12:32:28;8.10;99.90
5689;DHT22;2869;50.432;8.680;2024-02-26T12:34:56;8.20;99.90
5689;DHT22;2869;50.432;8.680;2024-02-26T12:37:24;8.20;99.90
5689;DHT22;2869;50.432;8.680;2024-02-26T12:39:50;8.30;99.90
5689;DHT22;2869;50.432;8.680;2024-02-26T12:42:17;8.40;99.90
5689;DHT22;2869;50.432;8.680;2024-02-26T12:44:44;8.40;99.90
5689;DHT22;2869;50.432;8.680;2024-02-26T12:47:11;8.50;99.90
5689;DHT22;2869;50.432;8.680;2024-02-26T12:49:42;8.50;99.90
5689;DHT22;2869;50.432;8.680;2024-02-26T12:52:08;8.70;99.90
5689;DHT22;2869;50.432;8.680;2024-02-26T12:54:37;8.80;99.90
5689;DHT22;2869;50.432;8.680;2024-02-26T12:57:04;8.90;99.90
5689;DHT22;2869;50.432;8.680;2024-02-26T12:59:31;9.00;99.90
5689;DHT22;2869;50.432;8.680;2024-02-26T13:01:58;9.10;99.90
5689;DHT22;2869;50.432;8.680;2024-02-26T13:04:26;9.30;99.90
5689;DHT22;2869;50.432;8.680;2024-02-26T13:06:54;9.30;99.90
5689;DHT22;2869;50.432;8.680;2024-02-26T13:09:20;9.50;99.90
5689;DHT22;2869;50.432;8.680;2024-02-26T13:11:53;9.50;99.90
5689;DHT22;2869;50.432;8.680;2024-02-26T13:14:19;9.50;99.90
5689;DHT22;2869;50.432;8.680;2024-02-26T13:16:54;9.50;99.90
5689;DHT22;2869;50.432;8.680;2024-02-26T13:19:20;9.50;99.90
5689;DHT22;2869;50.432;8.680;2024-02-26T13:21:47;9.70;99.90
5689;DHT22;2869;50.432;8.680;2024-02-26T13:24:13;9.90;99.90
5689;DHT22;2869;50.432;8.680;2024-02-26T13:26:40;10.00;99.90
5689;DHT22;2869;50.432;8.680;2024-02-26T13:29:08;10.20;99.90
5689;DHT22;2869;50.432;8.680;2024-02-26T13:31:38;10.20;99.90
5689;DHT22;2869;50.432;8.680;2024-02-26T13:34:05;10.40;99.90
5689;DHT22;2869;50.432;8.680;2024-02-26T13:36:31;10.50;99.90
5689;DHT22;2869;50.432;8.680;2024-02-26T13:38:58;10.80;99.90
5689;DHT22;2869;50.432;8.680;2024-02-26T13:41:25;10.90;99.90
5689;DHT22;2869;50.432;8.680;2024-02-26T13:43:52;11.20;99.90
5689;DHT22;2869;50.432;8.680;2024-02-26T13:46:20;11.50;99.90
5689;DHT22;2869;50.432;8.680;2024-02-26T13:48:47;11.80;99.90
5689;DHT22;2869;50.432;8.680;2024-02-26T13:51:13;11.70;99.90
5689;DHT22;2869;50.432;8.680;2024-02-26T13:53:40;11.50;99.90
5689;DHT22;2869;50.432;8.680;2024-02-26T13:56:06;11.50;99.90
5689;DHT22;2869;50.432;8.680;2024-02-26T13:58:33;11.30;99.90
5689;DHT22;2869;50.432;8.680;2024-02-26T14:00:59;11.10;99.90
5689;DHT22;2869;50.432;8.680;2024-02-26T14:03:30;11.10;99.90
5689;DHT22;2869;50.432;8.680;2024-02-26T14:05:56;11.00;99.90
5689;DHT22;2869;50.432;8.680;2024-02-26T14:08:23;10.90;99.90
5689;DHT22;2869;50.432;8.680;2024-02-26T14:10:50;11.00;99.90
5689;DHT22;2869;50.432;8.680;2024-02-26T14:13:16;11.00;99.90
5689;DHT22;2869;50.432;8.680;2024-02-26T14:15:43;11.00;99.90
5689;DHT22;2869;50.432;8.680;2024-02-26T14:18:09;11.10;99.90
5689;DHT22;2869;50.432;8.680;2024-02-26T14:20:37;11.30;99.90
5689;DHT22;2869;50.432;8.680;2024-02-26T14:23:05;11.40;99.90
5689;DHT22;2869;50.432;8.680;2024-02-26T14:25:32;11.40;99.90
5689;DHT22;2869;50.432;8.680;2024-02-26T14:27:58;11.40;99.90
5689;DHT22;2869;50.432;8.680;2024-02-26T14:30:25;11.30;99.90
5689;DHT22;2869;50.432;8.680;2024-02-26T14:32:52;11.10;99.90
5689;DHT22;2869;50.432;8.680;2024-02-26T14:35:18;11.10;99.90
5689;DHT22;2869;50.432;8.680;2024-02-26T14:37:46;11.20;99.90
5689;DHT22;2869;50.432;8.680;2024-02-26T14:40:14;11.20;99.90
5689;DHT22;2869;50.432;8.680;2024-02-26T14:42:40;11.40;99.90
5689;DHT22;2869;50.432;8.680;2024-02-26T14:45:07;11.50;99.90
5689;DHT22;2869;50.432;8.680;2024-02-26T14:47:34;11.70;99.90
5689;DHT22;2869;50.432;8.680;2024-02-26T14:50:01;11.90;99.90
5689;DHT22;2869;50.432;8.680;2024-02-26T14:52:27;12.00;99.90
5689;DHT22;2869;50.432;8.680;2024-02-26T14:54:55;12.10;99.90
5689;DHT22;2869;50.432;8.680;2024-02-26T14:57:23;12.10;99.90
5689;DHT22;2869;50.432;8.680;2024-02-26T14:59:50;12.20;99.90
5689;DHT22;2869;50.432;8.680;2024-02-26T15:02:16;12.10;99.90
5689;DHT22;2869;50.432;8.680;2024-02-26T15:04:43;12.00;99.90
5689;DHT22;2869;50.432;8.680;2024-02-26T15:07:10;12.10;99.90
5689;DHT22;2869;50.432;8.680;2024-02-26T15:09:36;12.10;99.90
5689;DHT22;2869;50.432;8.680;2024-02-26T15:12:05;11.90;99.90
5689;DHT22;2869;50.432;8.680;2024-02-26T15:14:33;11.80;99.90
5689;DHT22;2869;50.432;8.680;2024-02-26T15:17:00;11.70;99.90
5689;DHT22;2869;50.432;8.680;2024-02-26T15:19:27;11.50;99.90
5689;DHT22;2869;50.432;8.680;2024-02-26T15:21:53;11.50;99.90
5689;DHT22;2869;50.432;8.680;2024-02-26T15:24:20;11.30;99.90
5689;DHT22;2869;50.432;8.680;2024-02-26T15:26:46;11.20;99.90
5689;DHT22;2869;50.432;8.680;2024-02-26T15:29:14;11.10;99.90
5689;DHT22;2869;50.432;8.680;2024-02-26T15:31:41;11.10;99.90
5689;DHT22;2869;50.432;8.680;2024-02-26T15:34:07;11.00;99.90
5689;DHT22;2869;50.432;8.680;2024-02-26T15:36:34;11.00;99.90
5689;DHT22;2869;50.432;8.680;2024-02-26T15:39:01;10.90;99.90
5689;DHT22;2869;50.432;8.680;2024-02-26T15:41:29;10.90;99.90
5689;DHT22;2869;50.432;8.680;2024-02-26T15:43:55;10.90;99.90
5689;DHT22;2869;50.432;8.680;2024-02-26T15:46:23;10.90;99.90
5689;DHT22;2869;50.432;8.680;2024-02-26T15:48:50;10.80;99.90
5689;DHT22;2869;50.432;8.680;2024-02-26T15:51:20;10.70;99.90
5689;DHT22;2869;50.432;8.680;2024-02-26T15:53:47;10.70;99.90
5689;DHT22;2869;50.432;8.680;2024-02-26T15:56:14;10.60;99.90
5689;DHT22;2869;50.432;8.680;2024-02-26T15:58:41;10.60;99.90
5689;DHT22;2869;50.432;8.680;2024-02-26T16:01:07;10.50;99.90
5689;DHT22;2869;50.432;8.680;2024-02-26T16:03:37;10.50;99.90
5689;DHT22;2869;50.432;8.680;2024-02-26T16:06:04;10.50;99.90
5689;DHT22;2869;50.432;8.680;2024-02-26T16:08:30;10.50;99.90
5689;DHT22;2869;50.432;8.680;2024-02-26T16:10:58;10.40;99.90
5689;DHT22;2869;50.432;8.680;2024-02-26T16:13:25;10.40;99.90
5689;DHT22;2869;50.432;8.680;2024-02-26T16:15:53;10.30;99.90